Time;durP1;ratioP1;P1;durP2;ratioP2;P2;SDS_P1;SDS_P2;PMS_P1;PMS_P2;Temp;Humidity;BMP_temperature;BMP_pressure;BME280_temperature;BME280_humidity;BME280_pressure;Samples;Min_cycle;Max_cycle;Signal;HPM_P1;HPM_P2
2019/05/07 00:00:13;;;;;;;8.049999;5.35;;;;;;;4.93;58.85547;95511.67;;;;
2019/05/07 00:01:19;;;;;;;8.049999;5.35;;;;;;;4.93;58.85547;95511.67;;;;
2019/05/07 00:02:23;;;;;;;8.049999;5.35;;;;;;;4.93;58.85547;95511.67;;;;
2019/05/07 00:03:24;;;;;;;8.049999;5.35;;;;;;;4.93;58.85547;95511.67;;;;
2019/05/07 00:04:26;;;;;;;8.049999;5.35;;;;;;;4.93;58.85547;95511.67;;;;
2019/05/07 00:05:27;;;;;;;6.6;5.55;;;;;;;4.28;60.41699;95498.72;;;;
2019/05/07 00:06:28;;;;;;;6.6;5.55;;;;;;;4.28;60.41699;95498.72;;;;
2019/05/07 00:07:29;;;;;;;6.6;5.55;;;;;;;4.28;60.41699;95498.72;;;;
2019/05/07 00:08:30;;;;;;;6.6;5.55;;;;;;;4.28;60.41699;95498.72;;;;
2019/05/07 00:09:31;;;;;;;6.6;5.55;;;;;;;4.28;60.41699;95498.72;;;;
2019/05/07 00:10:32;;;;;;;6.6;5.55;;;;;;;4.28;60.41699;95498.72;;;;
2019/05/07 00:11:33;;;;;;;6.6;5.55;;;;;;;4.28;60.41699;95498.72;;;;
2019/05/07 00:12:34;;;;;;;6.6;5.55;;;;;;;4.28;60.41699;95498.72;;;;
2019/05/07 00:13:35;;;;;;;6.6;5.55;;;;;;;4.28;60.41699;95498.72;;;;
2019/05/07 00:14:36;;;;;;;6.6;5.55;;;;;;;4.28;60.41699;95498.72;;;;
2019/05/07 00:15:37;;;;;;;6.95;5.6;;;;;;;3.84;60.81152;95497.99;;;;
2019/05/07 00:16:39;;;;;;;6.95;5.6;;;;;;;3.84;60.81152;95497.99;;;;
2019/05/07 00:17:40;;;;;;;6.95;5.6;;;;;;;3.84;60.81152;95497.99;;;;
2019/05/07 00:18:41;;;;;;;6.95;5.6;;;;;;;3.84;60.81152;95497.99;;;;
2019/05/07 00:19:42;;;;;;;6.95;5.6;;;;;;;3.84;60.81152;95497.99;;;;
2019/05/07 00:20:43;;;;;;;6.95;5.6;;;;;;;3.84;60.81152;95497.99;;;;
2019/05/07 00:21:44;;;;;;;6.95;5.6;;;;;;;3.84;60.81152;95497.99;;;;
2019/05/07 00:22:45;;;;;;;6.95;5.6;;;;;;;3.84;60.81152;95497.99;;;;
2019/05/07 00:23:46;;;;;;;6.95;5.6;;;;;;;3.84;60.81152;95497.99;;;;
2019/05/07 00:24:47;;;;;;;6.95;5.6;;;;;;;3.84;60.81152;95497.99;;;;
2019/05/07 00:25:48;;;;;;;6.95;5.6;;;;;;;3.84;60.81152;95497.99;;;;
2019/05/07 00:26:49;;;;;;;8.050001;5.900001;;;;;;;3.51;61.24902;95489.29;;;;
2019/05/07 00:27:50;;;;;;;8.050001;5.900001;;;;;;;3.51;61.24902;95489.29;;;;
2019/05/07 00:28:52;;;;;;;8.050001;5.900001;;;;;;;3.51;61.24902;95489.29;;;;
2019/05/07 00:29:53;;;;;;;8.050001;5.900001;;;;;;;3.51;61.24902;95489.29;;;;
2019/05/07 00:30:54;;;;;;;8.050001;5.900001;;;;;;;3.51;61.24902;95489.29;;;;
2019/05/07 00:31:55;;;;;;;8.050001;5.900001;;;;;;;3.51;61.24902;95489.29;;;;
2019/05/07 00:32:56;;;;;;;8.050001;5.900001;;;;;;;3.51;61.24902;95489.29;;;;
2019/05/07 00:33:57;;;;;;;8.050001;5.900001;;;;;;;3.51;61.24902;95489.29;;;;
2019/05/07 00:35:01;;;;;;;8.050001;5.900001;;;;;;;3.51;61.24902;95489.29;;;;
2019/05/07 00:36:09;;;;;;;8.050001;5.900001;;;;;;;3.51;61.24902;95489.29;;;;
2019/05/07 00:37:20;;;;;;;8.1;5.95;;;;;;;3.11;61.69043;95485.69;;;;
2019/05/07 00:38:22;;;;;;;8.1;5.95;;;;;;;3.11;61.69043;95485.69;;;;
2019/05/07 00:40:01;;;;;;;8.1;5.95;;;;;;;3.11;61.69043;95485.69;;;;
2019/05/07 00:41:12;;;;;;;8.1;5.95;;;;;;;3.11;61.69043;95485.69;;;;
2019/05/07 00:42:21;;;;;;;8.1;5.95;;;;;;;3.11;61.69043;95485.69;;;;
2019/05/07 00:43:25;;;;;;;8.1;5.95;;;;;;;3.11;61.69043;95485.69;;;;
2019/05/07 00:44:27;;;;;;;8.1;5.95;;;;;;;3.11;61.69043;95485.69;;;;
2019/05/07 00:45:34;;;;;;;8.1;5.95;;;;;;;3.11;61.69043;95485.69;;;;
2019/05/07 00:46:35;;;;;;;8.1;5.95;;;;;;;3.11;61.69043;95485.69;;;;
2019/05/07 00:47:37;;;;;;;7.849999;6.5;;;;;;;2.86;62.27637;95481.28;;;;
2019/05/07 00:48:39;;;;;;;7.849999;6.5;;;;;;;2.86;62.27637;95481.28;;;;
2019/05/07 00:49:40;;;;;;;7.849999;6.5;;;;;;;2.86;62.27637;95481.28;;;;
2019/05/07 00:50:41;;;;;;;7.849999;6.5;;;;;;;2.86;62.27637;95481.28;;;;
2019/05/07 00:51:43;;;;;;;7.849999;6.5;;;;;;;2.86;62.27637;95481.28;;;;
2019/05/07 00:52:44;;;;;;;7.849999;6.5;;;;;;;2.86;62.27637;95481.28;;;;
2019/05/07 00:53:45;;;;;;;7.849999;6.5;;;;;;;2.86;62.27637;95481.28;;;;
2019/05/07 00:54:46;;;;;;;7.849999;6.5;;;;;;;2.86;62.27637;95481.28;;;;
2019/05/07 00:55:47;;;;;;;7.849999;6.5;;;;;;;2.86;62.27637;95481.28;;;;
2019/05/07 00:56:48;;;;;;;7.849999;6.5;;;;;;;2.86;62.27637;95481.28;;;;
2019/05/07 00:57:49;;;;;;;7.849999;6.5;;;;;;;2.86;62.27637;95481.28;;;;
2019/05/07 00:58:50;;;;;;;6.95;6.25;;;;;;;2.57;62.66699;95481.14;;;;
2019/05/07 00:59:52;;;;;;;6.95;6.25;;;;;;;2.57;62.66699;95481.14;;;;
2019/05/07 01:00:53;;;;;;;6.95;6.25;;;;;;;2.57;62.66699;95481.14;;;;
2019/05/07 01:01:54;;;;;;;6.95;6.25;;;;;;;2.57;62.66699;95481.14;;;;
2019/05/07 01:02:55;;;;;;;6.95;6.25;;;;;;;2.57;62.66699;95481.14;;;;
2019/05/07 01:03:57;;;;;;;6.95;6.25;;;;;;;2.57;62.66699;95481.14;;;;
2019/05/07 01:04:58;;;;;;;6.95;6.25;;;;;;;2.57;62.66699;95481.14;;;;
2019/05/07 01:05:59;;;;;;;6.95;6.25;;;;;;;2.57;62.66699;95481.14;;;;
2019/05/07 01:07:00;;;;;;;6.95;6.25;;;;;;;2.57;62.66699;95481.14;;;;
2019/05/07 01:08:01;;;;;;;6.95;6.25;;;;;;;2.57;62.66699;95481.14;;;;
2019/05/07 01:09:02;;;;;;;8.100001;6.050001;;;;;;;2.48;62.99023;95478.23;;;;
2019/05/07 01:10:04;;;;;;;8.100001;6.050001;;;;;;;2.48;62.99023;95478.23;;;;
2019/05/07 01:11:05;;;;;;;8.100001;6.050001;;;;;;;2.48;62.99023;95478.23;;;;
2019/05/07 01:12:07;;;;;;;8.100001;6.050001;;;;;;;2.48;62.99023;95478.23;;;;
2019/05/07 01:13:09;;;;;;;8.100001;6.050001;;;;;;;2.48;62.99023;95478.23;;;;
2019/05/07 01:14:10;;;;;;;8.100001;6.050001;;;;;;;2.48;62.99023;95478.23;;;;
2019/05/07 01:15:12;;;;;;;8.100001;6.050001;;;;;;;2.48;62.99023;95478.23;;;;
2019/05/07 01:16:13;;;;;;;8.100001;6.050001;;;;;;;2.48;62.99023;95478.23;;;;
2019/05/07 01:17:14;;;;;;;8.100001;6.050001;;;;;;;2.48;62.99023;95478.23;;;;
2019/05/07 01:18:15;;;;;;;8.100001;6.050001;;;;;;;2.48;62.99023;95478.23;;;;
2019/05/07 01:19:16;;;;;;;7.8;5.849999;;;;;;;2.35;63.15918;95471.47;;;;
2019/05/07 01:20:18;;;;;;;7.8;5.849999;;;;;;;2.35;63.15918;95471.47;;;;
2019/05/07 01:21:19;;;;;;;7.8;5.849999;;;;;;;2.35;63.15918;95471.47;;;;
2019/05/07 01:22:20;;;;;;;7.8;5.849999;;;;;;;2.35;63.15918;95471.47;;;;
2019/05/07 01:23:21;;;;;;;7.8;5.849999;;;;;;;2.35;63.15918;95471.47;;;;
2019/05/07 01:24:22;;;;;;;7.8;5.849999;;;;;;;2.35;63.15918;95471.47;;;;
2019/05/07 01:25:24;;;;;;;7.8;5.849999;;;;;;;2.35;63.15918;95471.47;;;;
2019/05/07 01:26:25;;;;;;;7.8;5.849999;;;;;;;2.35;63.15918;95471.47;;;;
2019/05/07 01:27:26;;;;;;;7.8;5.849999;;;;;;;2.35;63.15918;95471.47;;;;
2019/05/07 01:28:27;;;;;;;7.8;5.849999;;;;;;;2.35;63.15918;95471.47;;;;
2019/05/07 01:29:28;;;;;;;7.8;5.849999;;;;;;;2.35;63.15918;95471.47;;;;
2019/05/07 01:30:29;;;;;;;7.549999;5.9;;;;;;;2.25;63.4502;95474.91;;;;
2019/05/07 01:31:34;;;;;;;7.549999;5.9;;;;;;;2.25;63.4502;95474.91;;;;
2019/05/07 01:32:42;;;;;;;7.549999;5.9;;;;;;;2.25;63.4502;95474.91;;;;
2019/05/07 01:33:47;;;;;;;7.549999;5.9;;;;;;;2.25;63.4502;95474.91;;;;
2019/05/07 01:35:25;;;;;;;7.549999;5.9;;;;;;;2.25;63.4502;95474.91;;;;
2019/05/07 01:36:26;;;;;;;7.549999;5.9;;;;;;;2.25;63.4502;95474.91;;;;
2019/05/07 01:37:27;;;;;;;7.549999;5.9;;;;;;;2.25;63.4502;95474.91;;;;
2019/05/07 01:38:29;;;;;;;7.549999;5.9;;;;;;;2.25;63.4502;95474.91;;;;
2019/05/07 01:39:30;;;;;;;7.549999;5.9;;;;;;;2.25;63.4502;95474.91;;;;
2019/05/07 01:40:31;;;;;;;8;6.1;;;;;;;2.11;63.72559;95474.27;;;;
2019/05/07 01:41:32;;;;;;;8;6.1;;;;;;;2.11;63.72559;95474.27;;;;
2019/05/07 01:42:33;;;;;;;8;6.1;;;;;;;2.11;63.72559;95474.27;;;;
2019/05/07 01:43:35;;;;;;;8;6.1;;;;;;;2.11;63.72559;95474.27;;;;
2019/05/07 01:44:36;;;;;;;8;6.1;;;;;;;2.11;63.72559;95474.27;;;;
2019/05/07 01:45:42;;;;;;;8;6.1;;;;;;;2.11;63.72559;95474.27;;;;
2019/05/07 01:46:43;;;;;;;8;6.1;;;;;;;2.11;63.72559;95474.27;;;;
2019/05/07 01:47:44;;;;;;;8;6.1;;;;;;;2.11;63.72559;95474.27;;;;
2019/05/07 01:48:46;;;;;;;8;6.1;;;;;;;2.11;63.72559;95474.27;;;;
2019/05/07 01:49:47;;;;;;;8;6.1;;;;;;;2.11;63.72559;95474.27;;;;
2019/05/07 01:50:48;;;;;;;8;6.1;;;;;;;2.11;63.72559;95474.27;;;;
2019/05/07 01:51:49;;;;;;;7.800001;5.849999;;;;;;;2.01;64.06836;95476.36;;;;
2019/05/07 01:52:51;;;;;;;7.800001;5.849999;;;;;;;2.01;64.06836;95476.36;;;;
2019/05/07 01:53:52;;;;;;;7.800001;5.849999;;;;;;;2.01;64.06836;95476.36;;;;
2019/05/07 01:54:53;;;;;;;7.800001;5.849999;;;;;;;2.01;64.06836;95476.36;;;;
2019/05/07 01:55:54;;;;;;;7.800001;5.849999;;;;;;;2.01;64.06836;95476.36;;;;
2019/05/07 01:56:56;;;;;;;7.800001;5.849999;;;;;;;2.01;64.06836;95476.36;;;;
2019/05/07 01:57:57;;;;;;;7.800001;5.849999;;;;;;;2.01;64.06836;95476.36;;;;
2019/05/07 01:58:58;;;;;;;7.800001;5.849999;;;;;;;2.01;64.06836;95476.36;;;;
2019/05/07 02:00:01;;;;;;;7.800001;5.849999;;;;;;;2.01;64.06836;95476.36;;;;
2019/05/07 02:01:03;;;;;;;7.800001;5.849999;;;;;;;2.01;64.06836;95476.36;;;;
2019/05/07 02:02:14;;;;;;;7.1;5.799999;;;;;;;1.82;64.15527;95464.84;;;;
2019/05/07 02:04:24;;;;;;;7.1;5.799999;;;;;;;1.82;64.15527;95464.84;;;;
2019/05/07 02:05:36;;;;;;;7.1;5.799999;;;;;;;1.82;64.15527;95464.84;;;;
2019/05/07 02:07:10;;;;;;;7.1;5.799999;;;;;;;1.82;64.15527;95464.84;;;;
2019/05/07 02:08:15;;;;;;;7.1;5.799999;;;;;;;1.82;64.15527;95464.84;;;;
2019/05/07 02:09:26;;;;;;;7.1;5.799999;;;;;;;1.82;64.15527;95464.84;;;;
2019/05/07 02:10:35;;;;;;;7.1;5.799999;;;;;;;1.82;64.15527;95464.84;;;;
2019/05/07 02:11:40;;;;;;;7.1;5.799999;;;;;;;1.82;64.15527;95464.84;;;;
2019/05/07 02:12:41;;;;;;;8.2;5.849999;;;;;;;1.66;64.35254;95467.21;;;;
2019/05/07 02:13:43;;;;;;;8.2;5.849999;;;;;;;1.66;64.35254;95467.21;;;;
2019/05/07 02:14:44;;;;;;;8.2;5.849999;;;;;;;1.66;64.35254;95467.21;;;;
2019/05/07 02:15:45;;;;;;;8.2;5.849999;;;;;;;1.66;64.35254;95467.21;;;;
2019/05/07 02:16:47;;;;;;;8.2;5.849999;;;;;;;1.66;64.35254;95467.21;;;;
2019/05/07 02:17:48;;;;;;;8.2;5.849999;;;;;;;1.66;64.35254;95467.21;;;;
2019/05/07 02:18:49;;;;;;;8.2;5.849999;;;;;;;1.66;64.35254;95467.21;;;;
2019/05/07 02:19:51;;;;;;;8.2;5.849999;;;;;;;1.66;64.35254;95467.21;;;;
2019/05/07 02:20:52;;;;;;;8.2;5.849999;;;;;;;1.66;64.35254;95467.21;;;;
2019/05/07 02:21:54;;;;;;;8.2;5.849999;;;;;;;1.66;64.35254;95467.21;;;;
2019/05/07 02:22:55;;;;;;;8.549999;6.299999;;;;;;;1.43;64.66309;95462.38;;;;
2019/05/07 02:23:56;;;;;;;8.549999;6.299999;;;;;;;1.43;64.66309;95462.38;;;;
2019/05/07 02:24:57;;;;;;;8.549999;6.299999;;;;;;;1.43;64.66309;95462.38;;;;
2019/05/07 02:25:58;;;;;;;8.549999;6.299999;;;;;;;1.43;64.66309;95462.38;;;;
2019/05/07 02:26:59;;;;;;;8.549999;6.299999;;;;;;;1.43;64.66309;95462.38;;;;
2019/05/07 02:28:01;;;;;;;8.549999;6.299999;;;;;;;1.43;64.66309;95462.38;;;;
2019/05/07 02:29:02;;;;;;;8.549999;6.299999;;;;;;;1.43;64.66309;95462.38;;;;
2019/05/07 02:30:03;;;;;;;8.549999;6.299999;;;;;;;1.43;64.66309;95462.38;;;;
2019/05/07 02:31:04;;;;;;;8.549999;6.299999;;;;;;;1.43;64.66309;95462.38;;;;
2019/05/07 02:32:06;;;;;;;8.549999;6.299999;;;;;;;1.43;64.66309;95462.38;;;;
2019/05/07 02:33:07;;;;;;;8.549999;6.299999;;;;;;;1.43;64.66309;95462.38;;;;
2019/05/07 02:34:09;;;;;;;8.700001;5.8;;;;;;;1.27;64.94531;95456.67;;;;
2019/05/07 02:35:10;;;;;;;8.700001;5.8;;;;;;;1.27;64.94531;95456.67;;;;
2019/05/07 02:36:11;;;;;;;8.700001;5.8;;;;;;;1.27;64.94531;95456.67;;;;
2019/05/07 02:37:15;;;;;;;8.700001;5.8;;;;;;;1.27;64.94531;95456.67;;;;
2019/05/07 02:38:24;;;;;;;8.700001;5.8;;;;;;;1.27;64.94531;95456.67;;;;
2019/05/07 02:39:33;;;;;;;8.700001;5.8;;;;;;;1.27;64.94531;95456.67;;;;
2019/05/07 02:40:40;;;;;;;8.700001;5.8;;;;;;;1.27;64.94531;95456.67;;;;
2019/05/07 02:41:42;;;;;;;8.700001;5.8;;;;;;;1.27;64.94531;95456.67;;;;
2019/05/07 02:42:43;;;;;;;8.700001;5.8;;;;;;;1.27;64.94531;95456.67;;;;
2019/05/07 02:43:44;;;;;;;8.700001;5.8;;;;;;;1.27;64.94531;95456.67;;;;
2019/05/07 02:45:55;;;;;;;10.1;6.8;;;;;;;1.1;65.23438;95444.87;;;;
2019/05/07 02:47:03;;;;;;;10.1;6.8;;;;;;;1.1;65.23438;95444.87;;;;
2019/05/07 02:48:06;;;;;;;10.1;6.8;;;;;;;1.1;65.23438;95444.87;;;;
2019/05/07 02:49:13;;;;;;;10.1;6.8;;;;;;;1.1;65.23438;95444.87;;;;
2019/05/07 02:50:21;;;;;;;10.1;6.8;;;;;;;1.1;65.23438;95444.87;;;;
2019/05/07 02:51:27;;;;;;;10.1;6.8;;;;;;;1.1;65.23438;95444.87;;;;
2019/05/07 02:53:05;;;;;;;10.1;6.8;;;;;;;1.1;65.23438;95444.87;;;;
2019/05/07 02:54:18;;;;;;;10.1;6.8;;;;;;;1.1;65.23438;95444.87;;;;
2019/05/07 02:55:24;;;;;;;8.9;6.65;;;;;;;1.06;65.39453;95437.44;;;;
2019/05/07 02:56:26;;;;;;;8.9;6.65;;;;;;;1.06;65.39453;95437.44;;;;
2019/05/07 02:57:28;;;;;;;8.9;6.65;;;;;;;1.06;65.39453;95437.44;;;;
2019/05/07 02:58:29;;;;;;;8.9;6.65;;;;;;;1.06;65.39453;95437.44;;;;
2019/05/07 02:59:30;;;;;;;8.9;6.65;;;;;;;1.06;65.39453;95437.44;;;;
2019/05/07 03:00:31;;;;;;;8.9;6.65;;;;;;;1.06;65.39453;95437.44;;;;
2019/05/07 03:01:33;;;;;;;8.9;6.65;;;;;;;1.06;65.39453;95437.44;;;;
2019/05/07 03:02:34;;;;;;;8.9;6.65;;;;;;;1.06;65.39453;95437.44;;;;
2019/05/07 03:03:35;;;;;;;8.9;6.65;;;;;;;1.06;65.39453;95437.44;;;;
2019/05/07 03:04:36;;;;;;;8.9;6.65;;;;;;;1.06;65.39453;95437.44;;;;
2019/05/07 03:05:37;;;;;;;7.25;6.000001;;;;;;;0.94;66.1416;95433.91;;;;
2019/05/07 03:06:38;;;;;;;7.25;6.000001;;;;;;;0.94;66.1416;95433.91;;;;
2019/05/07 03:07:39;;;;;;;7.25;6.000001;;;;;;;0.94;66.1416;95433.91;;;;
2019/05/07 03:08:40;;;;;;;7.25;6.000001;;;;;;;0.94;66.1416;95433.91;;;;
2019/05/07 03:09:41;;;;;;;7.25;6.000001;;;;;;;0.94;66.1416;95433.91;;;;
2019/05/07 03:10:43;;;;;;;7.25;6.000001;;;;;;;0.94;66.1416;95433.91;;;;
2019/05/07 03:11:44;;;;;;;7.25;6.000001;;;;;;;0.94;66.1416;95433.91;;;;
2019/05/07 03:12:45;;;;;;;7.25;6.000001;;;;;;;0.94;66.1416;95433.91;;;;
2019/05/07 03:13:46;;;;;;;7.25;6.000001;;;;;;;0.94;66.1416;95433.91;;;;
2019/05/07 03:14:47;;;;;;;7.25;6.000001;;;;;;;0.94;66.1416;95433.91;;;;
2019/05/07 03:15:48;;;;;;;7.25;6.000001;;;;;;;0.94;66.1416;95433.91;;;;
2019/05/07 03:16:49;;;;;;;9.3;6.6;;;;;;;0.82;66.22852;95426.83;;;;
2019/05/07 03:17:50;;;;;;;9.3;6.6;;;;;;;0.82;66.22852;95426.83;;;;
2019/05/07 03:18:51;;;;;;;9.3;6.6;;;;;;;0.82;66.22852;95426.83;;;;
2019/05/07 03:19:52;;;;;;;9.3;6.6;;;;;;;0.82;66.22852;95426.83;;;;
2019/05/07 03:20:58;;;;;;;9.3;6.6;;;;;;;0.82;66.22852;95426.83;;;;
2019/05/07 03:22:00;;;;;;;9.3;6.6;;;;;;;0.82;66.22852;95426.83;;;;
2019/05/07 03:23:01;;;;;;;9.3;6.6;;;;;;;0.82;66.22852;95426.83;;;;
2019/05/07 03:24:15;;;;;;;9.3;6.6;;;;;;;0.82;66.22852;95426.83;;;;
2019/05/07 03:25:24;;;;;;;9.3;6.6;;;;;;;0.82;66.22852;95426.83;;;;
2019/05/07 03:26:28;;;;;;;9.3;6.6;;;;;;;0.82;66.22852;95426.83;;;;
2019/05/07 03:27:29;;;;;;;9.6;6.7;;;;;;;0.64;66.40039;95427.57;;;;
2019/05/07 03:28:46;;;;;;;9.6;6.7;;;;;;;0.64;66.40039;95427.57;;;;
2019/05/07 03:29:56;;;;;;;9.6;6.7;;;;;;;0.64;66.40039;95427.57;;;;
2019/05/07 03:31:04;;;;;;;9.6;6.7;;;;;;;0.64;66.40039;95427.57;;;;
2019/05/07 03:35:31;;;;;;;9.6;6.7;;;;;;;0.64;66.40039;95427.57;;;;
2019/05/07 03:36:39;;;;;;;9.6;6.7;;;;;;;0.64;66.40039;95427.57;;;;
2019/05/07 03:37:40;;;;;;;7.400001;6.099999;;;;;;;0.56;66.63867;95427.17;;;;
2019/05/07 03:38:42;;;;;;;7.400001;6.099999;;;;;;;0.56;66.63867;95427.17;;;;
2019/05/07 03:39:43;;;;;;;7.400001;6.099999;;;;;;;0.56;66.63867;95427.17;;;;
2019/05/07 03:40:44;;;;;;;7.400001;6.099999;;;;;;;0.56;66.63867;95427.17;;;;
2019/05/07 03:41:45;;;;;;;7.400001;6.099999;;;;;;;0.56;66.63867;95427.17;;;;
2019/05/07 03:42:46;;;;;;;7.400001;6.099999;;;;;;;0.56;66.63867;95427.17;;;;
2019/05/07 03:43:47;;;;;;;7.400001;6.099999;;;;;;;0.56;66.63867;95427.17;;;;
2019/05/07 03:44:56;;;;;;;7.400001;6.099999;;;;;;;0.56;66.63867;95427.17;;;;
2019/05/07 03:46:03;;;;;;;7.400001;6.099999;;;;;;;0.56;66.63867;95427.17;;;;
2019/05/07 03:47:23;;;;;;;7.400001;6.099999;;;;;;;0.56;66.63867;95427.17;;;;
2019/05/07 03:48:26;;;;;;;8.950001;6.349999;;;;;;;0.42;66.7334;95425.65;;;;
2019/05/07 03:49:28;;;;;;;8.950001;6.349999;;;;;;;0.42;66.7334;95425.65;;;;
2019/05/07 03:50:30;;;;;;;8.950001;6.349999;;;;;;;0.42;66.7334;95425.65;;;;
2019/05/07 03:51:31;;;;;;;8.950001;6.349999;;;;;;;0.42;66.7334;95425.65;;;;
2019/05/07 03:52:32;;;;;;;8.950001;6.349999;;;;;;;0.42;66.7334;95425.65;;;;
2019/05/07 03:53:33;;;;;;;8.950001;6.349999;;;;;;;0.42;66.7334;95425.65;;;;
2019/05/07 03:54:34;;;;;;;8.950001;6.349999;;;;;;;0.42;66.7334;95425.65;;;;
2019/05/07 03:55:35;;;;;;;8.950001;6.349999;;;;;;;0.42;66.7334;95425.65;;;;
2019/05/07 03:56:36;;;;;;;8.950001;6.349999;;;;;;;0.42;66.7334;95425.65;;;;
2019/05/07 03:57:37;;;;;;;8.950001;6.349999;;;;;;;0.42;66.7334;95425.65;;;;
2019/05/07 03:58:39;;;;;;;10.05;6.95;;;;;;;0.42;66.93066;95426.14;;;;
2019/05/07 03:59:40;;;;;;;10.05;6.95;;;;;;;0.42;66.93066;95426.14;;;;
2019/05/07 04:00:41;;;;;;;10.05;6.95;;;;;;;0.42;66.93066;95426.14;;;;
2019/05/07 04:01:43;;;;;;;10.05;6.95;;;;;;;0.42;66.93066;95426.14;;;;
2019/05/07 04:02:44;;;;;;;10.05;6.95;;;;;;;0.42;66.93066;95426.14;;;;
2019/05/07 04:03:45;;;;;;;10.05;6.95;;;;;;;0.42;66.93066;95426.14;;;;
2019/05/07 04:04:46;;;;;;;10.05;6.95;;;;;;;0.42;66.93066;95426.14;;;;
2019/05/07 04:05:47;;;;;;;10.05;6.95;;;;;;;0.42;66.93066;95426.14;;;;
2019/05/07 04:06:48;;;;;;;10.05;6.95;;;;;;;0.42;66.93066;95426.14;;;;
2019/05/07 04:07:49;;;;;;;10.05;6.95;;;;;;;0.42;66.93066;95426.14;;;;
2019/05/07 04:08:51;;;;;;;10.05;6.95;;;;;;;0.42;66.93066;95426.14;;;;
2019/05/07 04:09:52;;;;;;;8.450002;6.600001;;;;;;;0.38;67.00879;95417.69;;;;
2019/05/07 04:10:53;;;;;;;8.450002;6.600001;;;;;;;0.38;67.00879;95417.69;;;;
2019/05/07 04:11:54;;;;;;;8.450002;6.600001;;;;;;;0.38;67.00879;95417.69;;;;
2019/05/07 04:12:55;;;;;;;8.450002;6.600001;;;;;;;0.38;67.00879;95417.69;;;;
2019/05/07 04:13:56;;;;;;;8.450002;6.600001;;;;;;;0.38;67.00879;95417.69;;;;
2019/05/07 04:14:57;;;;;;;8.450002;6.600001;;;;;;;0.38;67.00879;95417.69;;;;
2019/05/07 04:15:58;;;;;;;8.450002;6.600001;;;;;;;0.38;67.00879;95417.69;;;;
2019/05/07 04:16:59;;;;;;;8.450002;6.600001;;;;;;;0.38;67.00879;95417.69;;;;
2019/05/07 04:18:00;;;;;;;8.450002;6.600001;;;;;;;0.38;67.00879;95417.69;;;;
2019/05/07 04:19:01;;;;;;;8.450002;6.600001;;;;;;;0.38;67.00879;95417.69;;;;
2019/05/07 04:20:03;;;;;;;9.2;6.1;;;;;;;0.49;67.1416;95418.24;;;;
2019/05/07 04:21:04;;;;;;;9.2;6.1;;;;;;;0.49;67.1416;95418.24;;;;
2019/05/07 04:22:05;;;;;;;9.2;6.1;;;;;;;0.49;67.1416;95418.24;;;;
2019/05/07 04:23:06;;;;;;;9.2;6.1;;;;;;;0.49;67.1416;95418.24;;;;
2019/05/07 04:24:30;;;;;;;9.2;6.1;;;;;;;0.49;67.1416;95418.24;;;;
2019/05/07 04:26:06;;;;;;;9.2;6.1;;;;;;;0.49;67.1416;95418.24;;;;
2019/05/07 04:27:17;;;;;;;9.2;6.1;;;;;;;0.49;67.1416;95418.24;;;;
2019/05/07 04:29:22;;;;;;;9.2;6.1;;;;;;;0.49;67.1416;95418.24;;;;
2019/05/07 04:30:24;;;;;;;7.750001;6.000001;;;;;;;0.57;67.20605;95429.27;;;;
2019/05/07 04:31:27;;;;;;;7.750001;6.000001;;;;;;;0.57;67.20605;95429.27;;;;
2019/05/07 04:32:36;;;;;;;7.750001;6.000001;;;;;;;0.57;67.20605;95429.27;;;;
2019/05/07 04:33:39;;;;;;;7.750001;6.000001;;;;;;;0.57;67.20605;95429.27;;;;
2019/05/07 04:34:55;;;;;;;7.750001;6.000001;;;;;;;0.57;67.20605;95429.27;;;;
2019/05/07 04:36:03;;;;;;;7.750001;6.000001;;;;;;;0.57;67.20605;95429.27;;;;
2019/05/07 04:37:04;;;;;;;7.750001;6.000001;;;;;;;0.57;67.20605;95429.27;;;;
2019/05/07 04:38:06;;;;;;;7.750001;6.000001;;;;;;;0.57;67.20605;95429.27;;;;
2019/05/07 04:39:07;;;;;;;7.750001;6.000001;;;;;;;0.57;67.20605;95429.27;;;;
2019/05/07 04:40:08;;;;;;;7.750001;6.000001;;;;;;;0.57;67.20605;95429.27;;;;
2019/05/07 04:41:09;;;;;;;8.200001;6.1;;;;;;;0.78;67.21777;95430.91;;;;
2019/05/07 04:42:10;;;;;;;8.200001;6.1;;;;;;;0.78;67.21777;95430.91;;;;
2019/05/07 04:43:11;;;;;;;8.200001;6.1;;;;;;;0.78;67.21777;95430.91;;;;
2019/05/07 04:44:12;;;;;;;8.200001;6.1;;;;;;;0.78;67.21777;95430.91;;;;
2019/05/07 04:45:13;;;;;;;8.200001;6.1;;;;;;;0.78;67.21777;95430.91;;;;
2019/05/07 04:46:14;;;;;;;8.200001;6.1;;;;;;;0.78;67.21777;95430.91;;;;
2019/05/07 04:47:16;;;;;;;8.200001;6.1;;;;;;;0.78;67.21777;95430.91;;;;
2019/05/07 04:48:17;;;;;;;8.200001;6.1;;;;;;;0.78;67.21777;95430.91;;;;
2019/05/07 04:49:18;;;;;;;8.200001;6.1;;;;;;;0.78;67.21777;95430.91;;;;
2019/05/07 04:50:21;;;;;;;8.200001;6.1;;;;;;;0.78;67.21777;95430.91;;;;
2019/05/07 04:51:31;;;;;;;8.200001;6.1;;;;;;;0.78;67.21777;95430.91;;;;
2019/05/07 04:52:34;;;;;;;9.549999;6.349999;;;;;;;1;67.17969;95431.4;;;;
2019/05/07 04:53:36;;;;;;;9.549999;6.349999;;;;;;;1;67.17969;95431.4;;;;
2019/05/07 04:54:37;;;;;;;9.549999;6.349999;;;;;;;1;67.17969;95431.4;;;;
2019/05/07 04:55:38;;;;;;;9.549999;6.349999;;;;;;;1;67.17969;95431.4;;;;
2019/05/07 04:56:39;;;;;;;9.549999;6.349999;;;;;;;1;67.17969;95431.4;;;;
2019/05/07 04:57:40;;;;;;;9.549999;6.349999;;;;;;;1;67.17969;95431.4;;;;
2019/05/07 04:58:41;;;;;;;9.549999;6.349999;;;;;;;1;67.17969;95431.4;;;;
2019/05/07 04:59:42;;;;;;;9.549999;6.349999;;;;;;;1;67.17969;95431.4;;;;
2019/05/07 05:00:43;;;;;;;9.549999;6.349999;;;;;;;1;67.17969;95431.4;;;;
2019/05/07 05:01:55;;;;;;;9.549999;6.349999;;;;;;;1;67.17969;95431.4;;;;
2019/05/07 05:03:03;;;;;;;8.3;5.95;;;;;;;1.42;67.39355;95427.39;;;;
2019/05/07 05:04:05;;;;;;;8.3;5.95;;;;;;;1.42;67.39355;95427.39;;;;
2019/05/07 05:05:06;;;;;;;8.3;5.95;;;;;;;1.42;67.39355;95427.39;;;;
2019/05/07 05:06:08;;;;;;;8.3;5.95;;;;;;;1.42;67.39355;95427.39;;;;
2019/05/07 05:07:09;;;;;;;8.3;5.95;;;;;;;1.42;67.39355;95427.39;;;;
2019/05/07 05:08:10;;;;;;;8.3;5.95;;;;;;;1.42;67.39355;95427.39;;;;
2019/05/07 05:09:11;;;;;;;8.3;5.95;;;;;;;1.42;67.39355;95427.39;;;;
2019/05/07 05:10:12;;;;;;;8.3;5.95;;;;;;;1.42;67.39355;95427.39;;;;
2019/05/07 05:11:13;;;;;;;8.3;5.95;;;;;;;1.42;67.39355;95427.39;;;;
2019/05/07 05:12:14;;;;;;;8.3;5.95;;;;;;;1.42;67.39355;95427.39;;;;
2019/05/07 05:13:15;;;;;;;6.85;5.5;;;;;;;1.94;67.27539;95430.16;;;;
2019/05/07 05:14:16;;;;;;;6.85;5.5;;;;;;;1.94;67.27539;95430.16;;;;
2019/05/07 05:15:17;;;;;;;6.85;5.5;;;;;;;1.94;67.27539;95430.16;;;;
2019/05/07 05:16:22;;;;;;;6.85;5.5;;;;;;;1.94;67.27539;95430.16;;;;
2019/05/07 05:17:24;;;;;;;6.85;5.5;;;;;;;1.94;67.27539;95430.16;;;;
2019/05/07 05:18:25;;;;;;;6.85;5.5;;;;;;;1.94;67.27539;95430.16;;;;
2019/05/07 05:19:26;;;;;;;6.85;5.5;;;;;;;1.94;67.27539;95430.16;;;;
2019/05/07 05:20:33;;;;;;;6.85;5.5;;;;;;;1.94;67.27539;95430.16;;;;
2019/05/07 05:21:43;;;;;;;6.85;5.5;;;;;;;1.94;67.27539;95430.16;;;;
2019/05/07 05:23:00;;;;;;;6.85;5.5;;;;;;;1.94;67.27539;95430.16;;;;
2019/05/07 05:24:06;;;;;;;6.2;4.85;;;;;;;2.62;66.91895;95437.05;;;;
2019/05/07 05:25:13;;;;;;;6.2;4.85;;;;;;;2.62;66.91895;95437.05;;;;
2019/05/07 05:26:15;;;;;;;6.2;4.85;;;;;;;2.62;66.91895;95437.05;;;;
2019/05/07 05:27:16;;;;;;;6.2;4.85;;;;;;;2.62;66.91895;95437.05;;;;
2019/05/07 05:28:17;;;;;;;6.2;4.85;;;;;;;2.62;66.91895;95437.05;;;;
2019/05/07 05:29:18;;;;;;;6.2;4.85;;;;;;;2.62;66.91895;95437.05;;;;
2019/05/07 05:30:26;;;;;;;6.2;4.85;;;;;;;2.62;66.91895;95437.05;;;;
2019/05/07 05:31:28;;;;;;;6.2;4.85;;;;;;;2.62;66.91895;95437.05;;;;
2019/05/07 05:32:29;;;;;;;6.2;4.85;;;;;;;2.62;66.91895;95437.05;;;;
2019/05/07 05:33:31;;;;;;;6.2;4.85;;;;;;;2.62;66.91895;95437.05;;;;
2019/05/07 05:34:32;;;;;;;7.45;5;;;;;;;3.19;66.83887;95440.26;;;;
2019/05/07 05:35:33;;;;;;;7.45;5;;;;;;;3.19;66.83887;95440.26;;;;
2019/05/07 05:36:34;;;;;;;7.45;5;;;;;;;3.19;66.83887;95440.26;;;;
2019/05/07 05:37:35;;;;;;;7.45;5;;;;;;;3.19;66.83887;95440.26;;;;
2019/05/07 05:38:36;;;;;;;7.45;5;;;;;;;3.19;66.83887;95440.26;;;;
2019/05/07 05:39:37;;;;;;;7.45;5;;;;;;;3.19;66.83887;95440.26;;;;
2019/05/07 05:40:38;;;;;;;7.45;5;;;;;;;3.19;66.83887;95440.26;;;;
2019/05/07 05:41:40;;;;;;;7.45;5;;;;;;;3.19;66.83887;95440.26;;;;
2019/05/07 05:42:48;;;;;;;7.45;5;;;;;;;3.19;66.83887;95440.26;;;;
2019/05/07 05:43:59;;;;;;;7.45;5;;;;;;;3.19;66.83887;95440.26;;;;
2019/05/07 05:45:00;;;;;;;4.8;4.05;;;;;;;3.87;66.33203;95438.95;;;;
2019/05/07 05:46:01;;;;;;;4.8;4.05;;;;;;;3.87;66.33203;95438.95;;;;
2019/05/07 05:47:03;;;;;;;4.8;4.05;;;;;;;3.87;66.33203;95438.95;;;;
2019/05/07 05:48:04;;;;;;;4.8;4.05;;;;;;;3.87;66.33203;95438.95;;;;
2019/05/07 05:49:05;;;;;;;4.8;4.05;;;;;;;3.87;66.33203;95438.95;;;;
2019/05/07 05:50:09;;;;;;;4.8;4.05;;;;;;;3.87;66.33203;95438.95;;;;
2019/05/07 05:52:08;;;;;;;4.8;4.05;;;;;;;3.87;66.33203;95438.95;;;;
2019/05/07 05:53:30;;;;;;;4.8;4.05;;;;;;;3.87;66.33203;95438.95;;;;
2019/05/07 05:54:36;;;;;;;4.8;4.05;;;;;;;3.87;66.33203;95438.95;;;;
2019/05/07 05:55:37;;;;;;;5.75;4.05;;;;;;;4.45;65.87207;95450.64;;;;
2019/05/07 05:56:44;;;;;;;5.75;4.05;;;;;;;4.45;65.87207;95450.64;;;;
2019/05/07 05:58:09;;;;;;;5.75;4.05;;;;;;;4.45;65.87207;95450.64;;;;
2019/05/07 05:59:20;;;;;;;5.75;4.05;;;;;;;4.45;65.87207;95450.64;;;;